createdAt,value
2023-04-01T00:00:17.011Z,0.00
2023-04-01T00:01:17.021Z,0.00
2023-04-01T00:02:17.017Z,0.00
2023-04-01T00:03:17.164Z,0.00
2023-04-01T00:04:17.076Z,0.00
2023-04-01T00:05:16.951Z,0.00
2023-04-01T00:06:16.968Z,0.00
2023-04-01T00:07:16.980Z,0.00
2023-04-01T00:08:16.917Z,0.00
2023-04-01T00:09:16.912Z,0.00
2023-04-01T00:10:16.910Z,0.00
2023-04-01T00:11:16.916Z,0.00
2023-04-01T00:12:16.877Z,0.00
2023-04-01T00:13:16.883Z,0.00
2023-04-01T00:14:16.845Z,0.00
2023-04-01T00:15:16.844Z,0.00
2023-04-01T00:17:16.816Z,0.00
2023-04-01T00:18:16.801Z,0.00
2023-04-01T00:19:16.938Z,0.00
2023-04-01T00:20:16.775Z,0.00
2023-04-01T00:21:16.817Z,0.00
2023-04-01T00:22:16.766Z,0.00
2023-04-01T00:23:16.760Z,0.00
2023-04-01T00:24:16.762Z,0.00
2023-04-01T00:25:16.730Z,0.00
2023-04-01T00:26:16.732Z,0.00
2023-04-01T00:27:16.738Z,0.00
2023-04-01T00:28:16.697Z,0.00
2023-04-01T00:29:16.700Z,0.00
2023-04-01T00:30:16.691Z,0.00
2023-04-01T00:31:16.678Z,0.00
2023-04-01T00:32:16.642Z,0.00
2023-04-01T00:33:16.630Z,0.00
2023-04-01T00:34:16.628Z,0.00
2023-04-01T00:35:16.634Z,0.00
2023-04-01T00:36:16.618Z,0.00
2023-04-01T00:37:16.631Z,0.00
2023-04-01T00:38:16.580Z,0.00
2023-04-01T00:39:16.564Z,0.00
2023-04-01T00:40:16.575Z,0.00
2023-04-01T00:41:16.651Z,0.00
2023-04-01T00:42:16.548Z,0.00
2023-04-01T00:43:16.524Z,0.00
2023-04-01T00:44:16.512Z,0.00
2023-04-01T00:45:16.522Z,0.00
2023-04-01T00:46:16.524Z,0.00
2023-04-01T00:47:16.477Z,0.00
2023-04-01T00:48:16.465Z,0.00
2023-04-01T00:49:16.471Z,0.00
2023-04-01T00:50:16.467Z,0.00
2023-04-01T00:51:16.467Z,0.00
2023-04-01T00:52:16.417Z,0.00
2023-04-01T00:53:16.436Z,0.00
2023-04-01T00:54:16.395Z,0.00
2023-04-01T00:55:16.400Z,0.00
2023-04-01T00:56:16.402Z,0.00
2023-04-01T00:57:16.377Z,0.00
2023-04-01T00:58:16.396Z,0.00
2023-04-01T00:59:16.363Z,0.00
2023-04-01T01:00:16.352Z,0.00
2023-04-01T01:01:16.326Z,0.00
2023-04-01T01:02:16.370Z,0.00
2023-04-01T01:03:16.324Z,0.00
2023-04-01T01:04:16.312Z,0.00
2023-04-01T01:05:16.279Z,0.00
2023-04-01T01:06:16.304Z,0.00
2023-04-01T01:07:16.263Z,0.00
2023-04-01T01:08:16.255Z,0.00
2023-04-01T01:09:16.232Z,0.00
2023-04-01T01:10:16.221Z,0.00
2023-04-01T01:11:16.371Z,0.00
2023-04-01T01:12:16.218Z,0.00
2023-04-01T01:13:16.180Z,0.00
2023-04-01T01:14:16.184Z,0.00
2023-04-01T01:15:16.159Z,0.00
2023-04-01T01:16:16.207Z,0.00
2023-04-01T01:17:16.143Z,0.00
2023-04-01T01:18:16.134Z,0.00
2023-04-01T01:19:16.111Z,0.00
2023-04-01T01:20:25.896Z,0.00
2023-04-01T01:21:17.090Z,0.00
2023-04-01T01:22:16.080Z,0.00
2023-04-01T01:23:16.088Z,0.00
2023-04-01T01:24:16.051Z,0.00
2023-04-01T01:25:16.051Z,0.00
2023-04-01T01:26:16.033Z,0.00
2023-04-01T01:27:16.020Z,0.00
2023-04-01T01:28:16.043Z,0.00
2023-04-01T01:29:16.002Z,0.00
2023-04-01T01:30:16.003Z,0.00
2023-04-01T01:31:16.057Z,0.00
2023-04-01T01:32:15.961Z,0.00
2023-04-01T01:33:15.978Z,0.00
2023-04-01T01:34:15.938Z,0.00
2023-04-01T01:35:15.939Z,0.00
2023-04-01T01:36:15.996Z,0.00
2023-04-01T01:37:15.907Z,0.00
2023-04-01T01:38:15.911Z,0.00
2023-04-01T01:39:15.903Z,0.00
2023-04-01T01:40:15.863Z,0.00
2023-04-01T01:41:15.868Z,0.00
2023-04-01T01:42:15.875Z,0.00
2023-04-01T01:43:15.875Z,0.00
2023-04-01T01:44:15.827Z,0.00
2023-04-01T01:45:15.904Z,0.00
2023-04-01T01:46:15.824Z,0.00
2023-04-01T01:47:15.815Z,0.00
2023-04-01T01:48:15.778Z,0.00
2023-04-01T01:49:15.806Z,0.00
2023-04-01T01:50:15.751Z,0.00
2023-04-01T01:51:15.741Z,0.00
2023-04-01T01:52:15.737Z,0.00
2023-04-01T01:53:15.723Z,0.00
2023-04-01T01:54:15.705Z,0.00
2023-04-01T01:55:15.729Z,0.00
2023-04-01T01:56:15.682Z,0.00
2023-04-01T01:57:15.709Z,0.00
2023-04-01T01:58:15.656Z,0.00
2023-04-01T01:59:15.662Z,0.00
2023-04-01T02:00:15.696Z,0.00
2023-04-01T02:01:15.713Z,0.00
2023-04-01T02:02:15.642Z,0.00
2023-04-01T02:03:15.635Z,0.00
2023-04-01T02:04:15.612Z,0.00
2023-04-01T02:05:15.587Z,0.00
2023-04-01T02:06:15.571Z,0.00
2023-04-01T02:07:15.591Z,0.00
2023-04-01T02:08:15.545Z,0.00
2023-04-01T02:09:15.572Z,0.00
2023-04-01T02:10:15.523Z,0.00
2023-04-01T02:11:15.514Z,0.00
2023-04-01T02:12:15.500Z,0.00
2023-04-01T02:13:15.494Z,0.00
2023-04-01T02:14:15.600Z,0.00
2023-04-01T02:15:15.535Z,0.00
2023-04-01T02:16:15.507Z,0.00
2023-04-01T02:17:15.438Z,0.00
2023-04-01T02:18:15.504Z,0.00
2023-04-01T02:19:15.429Z,0.00
2023-04-01T02:20:15.525Z,0.00
2023-04-01T02:21:15.402Z,0.00
2023-04-01T02:22:15.384Z,0.00
2023-04-01T02:23:15.400Z,0.00
2023-04-01T02:24:15.393Z,0.00
2023-04-01T02:25:15.397Z,0.00
2023-04-01T02:26:15.362Z,0.00
2023-04-01T02:27:15.378Z,0.00
2023-04-01T02:28:15.388Z,0.00
2023-04-01T02:29:15.385Z,0.00
2023-04-01T02:30:16.497Z,0.00
2023-04-01T02:31:15.406Z,0.00
2023-04-01T02:32:15.289Z,0.00
2023-04-01T02:33:15.253Z,0.00
2023-04-01T02:34:15.263Z,0.00
2023-04-01T02:35:15.260Z,0.00
2023-04-01T02:36:15.275Z,0.00
2023-04-01T02:37:15.209Z,0.00
2023-04-01T02:38:15.207Z,0.00
2023-04-01T02:39:15.190Z,0.00
2023-04-01T02:40:15.195Z,0.00
2023-04-01T02:41:15.159Z,0.00
2023-04-01T02:42:15.148Z,0.00
2023-04-01T02:43:15.144Z,0.00
2023-04-01T02:44:15.154Z,0.00
2023-04-01T02:45:15.120Z,0.00
2023-04-01T02:46:15.168Z,0.00
2023-04-01T02:47:15.095Z,0.00
2023-04-01T02:48:15.124Z,0.00
2023-04-01T02:49:15.098Z,0.00
2023-04-01T02:50:15.074Z,0.00
2023-04-01T02:51:17.363Z,0.00
2023-04-01T02:52:15.059Z,0.00
2023-04-01T02:53:15.023Z,0.00
2023-04-01T02:54:15.010Z,0.00
2023-04-01T02:55:15.007Z,0.00
2023-04-01T02:56:15.065Z,0.00
2023-04-01T02:57:15.099Z,0.00
2023-04-01T02:58:14.968Z,0.00
2023-04-01T02:59:14.962Z,0.00
2023-04-01T03:00:14.959Z,0.00
2023-04-01T03:01:14.981Z,0.00
2023-04-01T03:02:14.992Z,0.00
2023-04-01T03:03:14.987Z,0.00
2023-04-01T03:04:14.927Z,0.00
2023-04-01T03:05:14.893Z,0.00
2023-04-01T03:06:14.891Z,0.00
2023-04-01T03:07:14.891Z,0.00
2023-04-01T03:08:14.887Z,0.00
2023-04-01T03:09:14.838Z,0.00
2023-04-01T03:10:14.857Z,0.00
2023-04-01T03:11:14.820Z,0.00
2023-04-01T03:12:14.803Z,0.00
2023-04-01T03:13:14.791Z,0.00
2023-04-01T03:14:14.792Z,0.00
2023-04-01T03:15:14.797Z,0.00
2023-04-01T03:16:14.820Z,0.00
2023-04-01T03:17:14.755Z,0.00
2023-04-01T03:18:14.741Z,0.00
2023-04-01T03:19:14.727Z,0.00
2023-04-01T03:20:14.747Z,0.00
2023-04-01T03:21:14.733Z,0.00
2023-04-01T03:22:14.710Z,0.00
2023-04-01T03:23:14.685Z,0.00
2023-04-01T03:24:14.666Z,0.00
2023-04-01T03:25:14.688Z,0.00
2023-04-01T03:26:14.675Z,0.00
2023-04-01T03:27:14.631Z,0.00
2023-04-01T03:28:14.614Z,0.00
2023-04-01T03:29:14.603Z,0.00
2023-04-01T03:30:14.633Z,0.00
2023-04-01T03:31:14.647Z,0.00
2023-04-01T03:32:14.624Z,0.00
2023-04-01T03:33:14.596Z,0.00
2023-04-01T03:34:14.547Z,0.00
2023-04-01T03:35:14.574Z,0.00
2023-04-01T03:36:14.525Z,0.00
2023-04-01T03:37:14.518Z,0.00
2023-04-01T03:38:14.530Z,0.00
2023-04-01T03:39:14.521Z,0.00
2023-04-01T03:40:14.489Z,0.00
2023-04-01T03:41:14.460Z,0.00
2023-04-01T03:42:14.457Z,0.00
2023-04-01T03:43:14.481Z,0.00
2023-04-01T03:44:14.452Z,0.00
2023-04-01T03:45:14.422Z,0.00
2023-04-01T03:46:14.423Z,0.00
2023-04-01T03:47:14.392Z,0.00
2023-04-01T03:48:14.404Z,0.00
2023-04-01T03:49:14.378Z,0.00
2023-04-01T03:50:14.369Z,0.00
2023-04-01T03:51:14.375Z,0.00
2023-04-01T03:52:14.339Z,0.00
2023-04-01T03:53:14.354Z,0.00
2023-04-01T03:54:14.371Z,0.00
2023-04-01T03:55:14.308Z,0.00
2023-04-01T03:56:14.318Z,0.00
2023-04-01T03:57:14.286Z,0.00
2023-04-01T03:58:14.280Z,0.00
2023-04-01T03:59:14.280Z,0.00
2023-04-01T04:00:14.258Z,0.00
2023-04-01T04:01:14.234Z,0.00
2023-04-01T04:02:14.250Z,0.00
2023-04-01T04:03:14.311Z,0.00
2023-04-01T04:04:14.312Z,0.00
2023-04-01T04:05:14.179Z,0.00
2023-04-01T04:06:14.189Z,0.00
2023-04-01T04:07:14.207Z,0.00
2023-04-01T04:08:14.152Z,0.00
2023-04-01T04:09:14.138Z,0.00
2023-04-01T04:10:14.203Z,0.00
2023-04-01T04:11:17.202Z,0.00
2023-04-01T04:12:14.157Z,0.00
2023-04-01T04:13:14.113Z,0.00
2023-04-01T04:14:15.040Z,0.00
2023-04-01T04:15:14.081Z,0.00
2023-04-01T04:16:14.112Z,0.00
2023-04-01T04:17:14.073Z,0.00
2023-04-01T04:18:14.048Z,0.00
2023-04-01T04:19:14.075Z,0.00
2023-04-01T04:20:14.044Z,0.00
2023-04-01T04:21:14.013Z,0.00
2023-04-01T04:22:13.996Z,0.00
2023-04-01T04:23:13.983Z,0.00
2023-04-01T04:24:14.001Z,0.00
2023-04-01T04:25:13.964Z,0.00
2023-04-01T04:26:14.035Z,4.00
2023-04-01T04:27:14.004Z,4.00
2023-04-01T04:28:13.924Z,0.00
2023-04-01T04:29:13.910Z,0.00
2023-04-01T04:30:13.908Z,4.00
2023-04-01T04:31:13.923Z,4.00
2023-04-01T04:32:13.911Z,4.00
2023-04-01T04:33:13.916Z,4.00
2023-04-01T04:34:13.862Z,4.00
2023-04-01T04:35:13.843Z,8.00
2023-04-01T04:36:14.020Z,8.00
2023-04-01T04:37:13.835Z,8.00
2023-04-01T04:38:13.825Z,8.00
2023-04-01T04:39:13.804Z,12.00
2023-04-01T04:40:13.792Z,12.00
2023-04-01T04:41:13.792Z,16.00
2023-04-01T04:42:13.819Z,16.00
2023-04-01T04:43:13.782Z,16.00
2023-04-01T04:44:13.742Z,20.00
2023-04-01T04:45:13.770Z,20.00
2023-04-01T04:46:13.831Z,24.00
2023-04-01T04:47:13.962Z,24.00
2023-04-01T04:48:13.698Z,20.00
2023-04-01T04:49:13.690Z,24.00
2023-04-01T04:50:13.675Z,20.00
2023-04-01T04:51:20.973Z,24.00
2023-04-01T04:52:13.673Z,24.00
2023-04-01T04:53:13.633Z,28.00
2023-04-01T04:54:13.651Z,32.00
2023-04-01T04:55:13.610Z,40.00
2023-04-01T04:56:13.635Z,40.00
2023-04-01T04:57:13.601Z,40.00
2023-04-01T04:58:13.607Z,40.00
2023-04-01T04:59:13.588Z,40.00
2023-04-01T05:00:13.582Z,48.00
2023-04-01T05:01:13.613Z,48.00
2023-04-01T05:02:13.568Z,56.00
2023-04-01T05:03:13.626Z,56.00
2023-04-01T05:04:13.506Z,64.00
2023-04-01T05:05:13.523Z,68.00
2023-04-01T05:06:13.508Z,68.00
2023-04-01T05:07:13.492Z,76.00
2023-04-01T05:08:13.465Z,88.00
2023-04-01T05:09:13.444Z,96.00
2023-04-01T05:10:13.486Z,108.00
2023-04-01T05:11:13.977Z,112.00
2023-04-01T05:12:13.437Z,116.00
2023-04-01T05:13:13.451Z,120.00
2023-04-01T05:14:13.440Z,120.00
2023-04-01T05:15:13.380Z,140.00
2023-04-01T05:16:13.405Z,164.00
2023-04-01T05:17:13.389Z,184.00
2023-04-01T05:18:13.373Z,200.00
2023-04-01T05:19:13.358Z,224.00
2023-04-01T05:20:13.328Z,248.00
2023-04-01T05:21:13.305Z,268.00
2023-04-01T05:22:13.325Z,284.00
2023-04-01T05:23:13.300Z,288.00
2023-04-01T05:24:13.304Z,284.00
2023-04-01T05:25:13.323Z,280.00
2023-04-01T05:26:13.330Z,284.00
2023-04-01T05:27:13.316Z,288.00
2023-04-01T05:28:13.238Z,296.00
2023-04-01T05:29:13.272Z,312.00
2023-04-01T05:30:13.244Z,328.00
2023-04-01T05:31:13.276Z,344.00
2023-04-01T05:32:13.199Z,356.00
2023-04-01T05:33:13.175Z,364.00
2023-04-01T05:34:13.197Z,372.00
2023-04-01T05:35:13.207Z,376.00
2023-04-01T05:36:13.188Z,368.00
2023-04-01T05:37:13.165Z,364.00
2023-04-01T05:38:13.138Z,340.00
2023-04-01T05:39:13.104Z,340.00
2023-04-01T05:40:13.131Z,356.00
2023-04-01T05:41:13.118Z,368.00
2023-04-01T05:42:13.075Z,380.00
2023-04-01T05:43:13.082Z,404.00
2023-04-01T05:44:13.053Z,456.00
2023-04-01T05:45:13.064Z,480.00
2023-04-01T05:46:13.085Z,492.00
2023-04-01T05:47:13.045Z,536.00
2023-04-01T05:48:15.640Z,564.00
2023-04-01T05:49:13.005Z,504.00
2023-04-01T05:50:12.980Z,536.00
2023-04-01T05:51:12.989Z,520.00
2023-04-01T05:52:13.018Z,516.00
2023-04-01T05:53:12.998Z,516.00
2023-04-01T05:54:12.987Z,528.00
2023-04-01T05:55:12.961Z,528.00
2023-04-01T05:56:12.932Z,552.00
2023-04-01T05:57:12.969Z,564.00
2023-04-01T05:58:12.908Z,592.00
2023-04-01T05:59:12.936Z,616.00
2023-04-01T06:00:12.863Z,656.00
2023-04-01T06:01:16.173Z,712.00
2023-04-01T06:02:12.862Z,772.00
2023-04-01T06:03:12.892Z,804.00
2023-04-01T06:04:12.954Z,732.00
2023-04-01T06:05:12.802Z,644.00
2023-04-01T06:06:12.824Z,552.00
2023-04-01T06:07:12.781Z,492.00
2023-04-01T06:08:12.831Z,472.00
2023-04-01T06:09:12.758Z,452.00
2023-04-01T06:10:12.801Z,444.00
2023-04-01T06:11:12.737Z,416.00
2023-04-01T06:12:12.727Z,420.00
2023-04-01T06:13:12.712Z,420.00
2023-04-01T06:14:12.746Z,432.00
2023-04-01T06:15:12.697Z,424.00
2023-04-01T06:16:12.765Z,436.00
2023-04-01T06:17:12.672Z,460.00
2023-04-01T06:18:13.755Z,472.00
2023-04-01T06:19:12.669Z,484.00
2023-04-01T06:20:12.669Z,476.00
2023-04-01T06:21:12.618Z,484.00
2023-04-01T06:22:12.679Z,480.00
2023-04-01T06:23:12.624Z,468.00
2023-04-01T06:24:12.583Z,468.00
2023-04-01T06:25:12.582Z,468.00
2023-04-01T06:26:12.590Z,468.00
2023-04-01T06:27:12.560Z,452.00
2023-04-01T06:28:12.581Z,480.00
2023-04-01T06:29:12.523Z,524.00
2023-04-01T06:30:12.521Z,556.00
2023-04-01T06:31:12.532Z,576.00
2023-04-01T06:32:12.518Z,588.00
2023-04-01T06:33:12.557Z,584.00
2023-04-01T06:34:12.619Z,600.00
2023-04-01T06:35:12.474Z,588.00
2023-04-01T06:36:12.474Z,600.00
2023-04-01T06:37:12.441Z,612.00
2023-04-01T06:38:12.435Z,660.00
2023-04-01T06:39:12.444Z,688.00
2023-04-01T06:40:12.433Z,704.00
2023-04-01T06:41:12.416Z,760.00
2023-04-01T06:42:12.385Z,820.00
2023-04-01T06:43:12.399Z,864.00
2023-04-01T06:44:12.360Z,844.00
2023-04-01T06:45:12.371Z,948.00
2023-04-01T06:46:12.410Z,988.00
2023-04-01T06:47:12.323Z,1008.00
2023-04-01T06:48:12.414Z,1004.00
2023-04-01T06:49:12.337Z,904.00
2023-04-01T06:50:12.333Z,920.00
2023-04-01T06:51:12.276Z,852.00
2023-04-01T06:52:12.277Z,856.00
2023-04-01T06:53:12.284Z,868.00
2023-04-01T06:54:12.271Z,928.00
2023-04-01T06:55:12.227Z,1008.00
2023-04-01T06:56:12.217Z,1068.00
2023-04-01T06:57:12.265Z,1136.00
2023-04-01T06:58:12.213Z,1224.00
2023-04-01T06:59:12.209Z,1256.00
2023-04-01T07:00:12.169Z,1264.00
2023-04-01T07:01:12.271Z,1248.00
2023-04-01T07:02:12.147Z,1212.00
2023-04-01T07:03:12.157Z,1136.00
2023-04-01T07:04:12.173Z,1088.00
2023-04-01T07:05:12.111Z,996.00
2023-04-01T07:06:12.145Z,880.00
2023-04-01T07:07:12.115Z,852.00
2023-04-01T07:08:12.080Z,860.00
2023-04-01T07:09:12.087Z,896.00
2023-04-01T07:10:12.102Z,984.00
2023-04-01T07:11:12.052Z,940.00
2023-04-01T07:12:12.032Z,864.00
2023-04-01T07:13:12.035Z,896.00
2023-04-01T07:14:12.003Z,824.00
2023-04-01T07:15:12.022Z,820.00
2023-04-01T07:16:11.998Z,848.00
2023-04-01T07:17:12.105Z,812.00
2023-04-01T07:18:12.075Z,828.00
2023-04-01T07:19:11.947Z,780.00
2023-04-01T07:20:11.937Z,728.00
2023-04-01T07:21:14.613Z,644.00
2023-04-01T07:22:11.940Z,632.00
2023-04-01T07:23:11.934Z,644.00
2023-04-01T07:24:11.888Z,616.00
2023-04-01T07:25:11.903Z,604.00
2023-04-01T07:26:11.869Z,596.00
2023-04-01T07:27:11.879Z,592.00
2023-04-01T07:28:11.886Z,580.00
2023-04-01T07:29:11.872Z,608.00
2023-04-01T07:30:11.841Z,636.00
2023-04-01T07:31:11.849Z,660.00
2023-04-01T07:32:11.795Z,680.00
2023-04-01T07:33:11.788Z,712.00
2023-04-01T07:34:11.807Z,716.00
2023-04-01T07:35:11.767Z,768.00
2023-04-01T07:36:11.812Z,772.00
2023-04-01T07:37:11.796Z,764.00
2023-04-01T07:38:11.795Z,792.00
2023-04-01T07:39:11.833Z,780.00
2023-04-01T07:40:11.779Z,780.00
2023-04-01T07:41:11.810Z,796.00
2023-04-01T07:42:11.760Z,860.00
2023-04-01T07:43:11.675Z,936.00
2023-04-01T07:44:11.668Z,992.00
2023-04-01T07:45:11.687Z,1036.00
2023-04-01T07:46:12.678Z,1092.00
2023-04-01T07:47:11.625Z,1092.00
2023-04-01T07:48:11.692Z,1088.00
2023-04-01T07:49:19.356Z,1096.00
2023-04-01T07:50:11.623Z,1172.00
2023-04-01T07:51:11.583Z,1220.00
2023-04-01T07:52:11.610Z,1228.00
2023-04-01T07:53:11.633Z,1156.00
2023-04-01T07:54:11.562Z,1172.00
2023-04-01T07:55:11.548Z,1248.00
2023-04-01T07:56:12.645Z,1296.00
2023-04-01T07:57:11.556Z,1276.00
2023-04-01T07:58:11.504Z,1252.00
2023-04-01T07:59:11.531Z,1256.00
2023-04-01T08:00:11.486Z,1304.00
2023-04-01T08:01:11.463Z,1384.00
2023-04-01T08:02:11.479Z,1352.00
2023-04-01T08:03:11.489Z,1532.00
2023-04-01T08:04:11.568Z,1644.00
2023-04-01T08:05:11.461Z,1604.00
2023-04-01T08:06:11.550Z,1652.00
2023-04-01T08:07:11.419Z,1696.00
2023-04-01T08:08:11.460Z,1792.00
2023-04-01T08:09:11.557Z,1788.00
2023-04-01T08:10:11.543Z,1872.00
2023-04-01T08:11:11.366Z,1844.00
2023-04-01T08:12:11.354Z,1880.00
2023-04-01T08:13:11.352Z,1800.00
2023-04-01T08:14:11.310Z,1804.00
2023-04-01T08:15:11.323Z,1700.00
2023-04-01T08:16:11.373Z,1712.00
2023-04-01T08:17:11.343Z,1688.00
2023-04-01T08:18:11.269Z,1636.00
2023-04-01T08:19:11.251Z,1608.00
2023-04-01T08:20:11.246Z,1652.00
2023-04-01T08:21:11.243Z,1644.00
2023-04-01T08:22:11.215Z,1588.00
2023-04-01T08:23:11.250Z,1608.00
2023-04-01T08:24:11.191Z,1672.00
2023-04-01T08:25:11.202Z,1728.00
2023-04-01T08:26:11.226Z,1692.00
2023-04-01T08:27:11.158Z,1664.00
2023-04-01T08:28:11.146Z,1644.00
2023-04-01T08:29:11.155Z,1716.00
2023-04-01T08:30:11.124Z,1824.00
2023-04-01T08:31:11.141Z,1896.00
2023-04-01T08:32:11.255Z,1868.00
2023-04-01T08:33:11.145Z,1812.00
2023-04-01T08:34:11.076Z,1804.00
2023-04-01T08:35:11.070Z,1732.00
2023-04-01T08:36:11.110Z,1672.00
2023-04-01T08:37:11.047Z,1628.00
2023-04-01T08:38:11.047Z,1588.00
2023-04-01T08:39:11.032Z,1484.00
2023-04-01T08:40:11.073Z,1420.00
2023-04-01T08:41:11.071Z,1372.00
2023-04-01T08:42:10.986Z,1296.00
2023-04-01T08:43:10.972Z,1264.00
2023-04-01T08:44:10.991Z,1320.00
2023-04-01T08:45:13.116Z,1364.00
2023-04-01T08:46:10.986Z,1456.00
2023-04-01T08:47:10.952Z,1520.00
2023-04-01T08:48:10.941Z,1632.00
2023-04-01T08:49:10.932Z,1744.00
2023-04-01T08:50:10.906Z,1904.00
2023-04-01T08:51:10.891Z,1980.00
2023-04-01T08:52:10.903Z,2028.00
2023-04-01T08:53:10.871Z,2124.00
2023-04-01T08:54:11.689Z,2128.00
2023-04-01T08:55:10.850Z,2000.00
2023-04-01T08:56:10.881Z,2060.00
2023-04-01T08:57:10.849Z,2120.00
2023-04-01T08:58:10.842Z,1924.00
2023-04-01T08:59:10.840Z,2048.00
2023-04-01T09:00:10.824Z,2020.00
2023-04-01T09:01:10.803Z,2016.00
2023-04-01T09:02:10.816Z,1928.00
2023-04-01T09:03:11.049Z,1976.00
2023-04-01T09:04:10.851Z,2012.00
2023-04-01T09:05:10.727Z,1920.00
2023-04-01T09:06:10.713Z,1880.00
2023-04-01T09:07:12.643Z,1800.00
2023-04-01T09:08:10.690Z,1716.00
2023-04-01T09:09:10.723Z,1624.00
2023-04-01T09:10:10.678Z,1568.00
2023-04-01T09:11:10.662Z,1492.00
2023-04-01T09:12:10.719Z,1560.00
2023-04-01T09:13:10.657Z,1440.00
2023-04-01T09:14:10.629Z,1384.00
2023-04-01T09:15:10.658Z,1436.00
2023-04-01T09:16:10.708Z,1456.00
2023-04-01T09:17:10.594Z,1372.00
2023-04-01T09:18:10.745Z,1368.00
2023-04-01T09:19:11.134Z,1316.00
2023-04-01T09:20:10.585Z,1392.00
2023-04-01T09:21:10.545Z,1416.00
2023-04-01T09:22:10.559Z,1528.00
2023-04-01T09:23:10.527Z,1584.00
2023-04-01T09:24:10.527Z,1620.00
2023-04-01T09:25:10.529Z,1764.00
2023-04-01T09:26:10.506Z,1824.00
2023-04-01T09:27:10.483Z,1872.00
2023-04-01T09:28:10.481Z,1832.00
2023-04-01T09:29:10.481Z,1812.00
2023-04-01T09:30:10.471Z,1812.00
2023-04-01T09:31:10.573Z,1904.00
2023-04-01T09:32:10.424Z,1948.00
2023-04-01T09:33:10.414Z,1968.00
2023-04-01T09:34:10.414Z,2040.00
2023-04-01T09:35:10.390Z,2100.00
2023-04-01T09:36:10.445Z,2160.00
2023-04-01T09:37:10.393Z,2056.00
2023-04-01T09:38:10.378Z,1988.00
2023-04-01T09:39:10.348Z,1996.00
2023-04-01T09:40:10.348Z,1996.00
2023-04-01T09:41:10.323Z,2084.00
2023-04-01T09:42:10.317Z,2056.00
2023-04-01T09:43:10.330Z,2024.00
2023-04-01T09:44:10.288Z,2100.00
2023-04-01T09:45:10.315Z,2112.00
2023-04-01T09:46:10.329Z,2144.00
2023-04-01T09:47:10.253Z,2204.00
2023-04-01T09:48:10.345Z,2172.00
2023-04-01T09:49:10.241Z,2180.00
2023-04-01T09:50:10.218Z,2080.00
2023-04-01T09:51:10.241Z,2120.00
2023-04-01T09:52:10.210Z,2092.00
2023-04-01T09:53:10.209Z,1996.00
2023-04-01T09:54:10.171Z,1956.00
2023-04-01T09:55:10.188Z,1816.00
2023-04-01T09:56:19.615Z,1816.00
2023-04-01T09:58:45.361Z,1720.00
2023-04-01T09:59:44.919Z,1708.00
2023-04-01T10:00:52.929Z,1784.00
2023-04-01T10:01:52.855Z,1840.00
2023-04-01T10:02:45.174Z,1956.00
2023-04-01T10:03:44.856Z,2212.00
2023-04-01T10:04:45.452Z,2428.00
2023-04-01T10:05:44.831Z,2492.00
2023-04-01T10:06:44.799Z,2608.00
2023-04-01T10:07:44.795Z,2760.00
2023-04-01T10:08:44.807Z,2832.00
2023-04-01T10:09:44.763Z,2796.00
2023-04-01T10:10:44.769Z,2764.00
2023-04-01T10:11:44.739Z,2808.00
2023-04-01T10:12:44.742Z,2816.00
2023-04-01T10:13:44.759Z,2856.00
2023-04-01T10:14:44.714Z,2896.00
2023-04-01T10:15:44.688Z,2880.00
2023-04-01T10:16:44.713Z,2824.00
2023-04-01T10:17:44.716Z,2780.00
2023-04-01T10:18:44.710Z,2768.00
2023-04-01T10:19:44.662Z,2568.00
2023-04-01T10:20:44.673Z,2440.00
2023-04-01T10:21:44.623Z,2400.00
2023-04-01T10:22:44.659Z,2528.00
2023-04-01T10:23:44.605Z,2592.00
2023-04-01T10:24:44.614Z,2584.00
2023-04-01T10:25:44.573Z,2552.00
2023-04-01T10:26:44.571Z,2456.00
2023-04-01T10:27:44.557Z,2360.00
2023-04-01T10:28:44.574Z,2252.00
2023-04-01T10:29:44.536Z,2236.00
2023-04-01T10:30:44.538Z,2240.00
2023-04-01T10:31:44.564Z,2300.00
2023-04-01T10:32:44.863Z,2368.00
2023-04-01T10:33:44.535Z,2320.00
2023-04-01T10:34:44.482Z,2308.00
2023-04-01T10:35:44.523Z,2356.00
2023-04-01T10:36:44.473Z,2268.00
2023-04-01T10:37:44.457Z,2336.00
2023-04-01T10:38:44.483Z,2380.00
2023-04-01T10:39:44.447Z,2348.00
2023-04-01T10:40:44.404Z,2312.00
2023-04-01T10:41:44.410Z,2556.00
2023-04-01T10:42:44.436Z,2548.00
2023-04-01T10:43:44.403Z,2740.00
2023-04-01T10:44:44.363Z,2856.00
2023-04-01T10:45:44.417Z,2664.00
2023-04-01T10:46:44.349Z,2544.00
2023-04-01T10:47:44.379Z,2472.00
2023-04-01T10:48:44.368Z,2448.00
2023-04-01T10:49:44.325Z,2404.00
2023-04-01T10:50:44.289Z,2344.00
2023-04-01T10:51:51.339Z,2484.00
2023-04-01T10:52:44.293Z,2636.00
2023-04-01T10:53:44.289Z,2580.00
2023-04-01T10:54:44.243Z,2616.00
2023-04-01T10:55:44.229Z,2652.00
2023-04-01T10:56:44.228Z,2476.00
2023-04-01T10:57:44.219Z,2372.00
2023-04-01T10:58:44.225Z,2196.00
2023-04-01T10:59:44.187Z,2092.00
2023-04-01T11:00:44.177Z,2088.00
2023-04-01T11:01:44.287Z,2044.00
2023-04-01T11:02:44.209Z,2148.00
2023-04-01T11:03:44.363Z,2272.00
2023-04-01T11:04:44.152Z,2372.00
2023-04-01T11:05:44.142Z,2444.00
2023-04-01T11:06:44.106Z,2524.00
2023-04-01T11:07:48.376Z,2524.00
2023-04-01T11:08:45.113Z,2500.00
2023-04-01T11:09:44.075Z,2424.00
2023-04-01T11:10:44.066Z,2336.00
2023-04-01T11:11:44.083Z,2328.00
2023-04-01T11:12:44.039Z,2312.00
2023-04-01T11:13:44.055Z,2308.00
2023-04-01T11:14:44.081Z,2208.00
2023-04-01T11:15:44.035Z,2068.00
2023-04-01T11:16:44.067Z,2072.00
2023-04-01T11:17:43.983Z,2016.00
2023-04-01T11:18:43.987Z,1888.00
2023-04-01T11:19:44.277Z,1836.00
2023-04-01T11:20:43.994Z,1880.00
2023-04-01T11:21:43.931Z,1908.00
2023-04-01T11:22:43.920Z,1932.00
2023-04-01T11:24:01.840Z,1892.00
2023-04-01T11:24:44.909Z,1888.00
2023-04-01T11:25:43.928Z,1860.00
2023-04-01T11:26:43.900Z,1760.00
2023-04-01T11:27:43.926Z,1708.00
2023-04-01T11:28:43.859Z,1660.00
2023-04-01T11:29:56.686Z,1628.00
2023-04-01T11:30:44.865Z,1548.00
2023-04-01T11:31:43.941Z,1500.00
2023-04-01T11:32:43.867Z,1500.00
2023-04-01T11:33:43.811Z,1456.00
2023-04-01T11:34:43.810Z,1444.00
2023-04-01T11:35:43.776Z,1468.00
2023-04-01T11:36:43.849Z,1548.00
2023-04-01T11:37:43.757Z,1616.00
2023-04-01T11:38:43.746Z,1656.00
2023-04-01T11:39:43.756Z,1672.00
2023-04-01T11:40:43.723Z,1684.00
2023-04-01T11:41:43.705Z,1708.00
2023-04-01T11:42:43.729Z,1760.00
2023-04-01T11:43:43.692Z,1760.00
2023-04-01T11:44:43.676Z,1740.00
2023-04-01T11:45:43.678Z,1716.00
2023-04-01T11:46:43.696Z,1704.00
2023-04-01T11:47:43.671Z,1708.00
2023-04-01T11:48:45.005Z,1764.00
2023-04-01T11:49:43.655Z,1808.00
2023-04-01T11:50:43.639Z,1800.00
2023-04-01T11:51:43.616Z,1828.00
2023-04-01T11:52:43.605Z,1880.00
2023-04-01T11:53:43.561Z,1924.00
2023-04-01T11:54:43.562Z,1948.00
2023-04-01T11:55:43.616Z,1984.00
2023-04-01T11:56:43.536Z,2044.00
2023-04-01T11:57:43.522Z,2104.00
2023-04-01T11:58:43.512Z,2192.00
2023-04-01T11:59:43.522Z,2300.00
2023-04-01T12:00:43.491Z,2200.00
2023-04-01T12:01:43.475Z,2148.00
2023-04-01T12:02:43.548Z,2076.00
2023-04-01T12:03:43.649Z,2044.00
2023-04-01T12:04:43.492Z,2104.00
2023-04-01T12:05:43.488Z,2204.00
2023-04-01T12:06:43.447Z,2348.00
2023-04-01T12:07:45.959Z,2572.00
2023-04-01T12:08:43.422Z,2716.00
2023-04-01T12:09:43.381Z,2904.00
2023-04-01T12:10:43.382Z,3072.00
2023-04-01T12:11:43.396Z,3288.00
2023-04-01T12:12:54.249Z,3596.00
2023-04-01T12:13:44.398Z,3844.00
2023-04-01T12:14:43.337Z,4208.00
2023-04-01T12:15:43.336Z,4600.00
2023-04-01T12:16:43.381Z,4168.00
2023-04-01T12:17:43.341Z,4232.00
2023-04-01T12:18:43.307Z,4620.00
2023-04-01T12:19:43.269Z,4200.00
2023-04-01T12:20:43.268Z,4092.00
2023-04-01T12:21:43.249Z,4104.00
2023-04-01T12:22:43.279Z,4164.00
2023-04-01T12:23:43.223Z,4540.00
2023-04-01T12:24:43.232Z,4672.00
2023-04-01T12:25:43.205Z,4820.00
2023-04-01T12:26:43.197Z,4356.00
2023-04-01T12:27:43.202Z,4412.00
2023-04-01T12:28:43.181Z,4332.00
2023-04-01T12:29:43.155Z,4928.00
2023-04-01T12:30:43.224Z,5484.00
2023-04-01T12:31:43.148Z,4340.00
2023-04-01T12:32:43.171Z,5460.00
2023-04-01T12:33:43.139Z,5016.00
2023-04-01T12:34:43.098Z,3408.00
2023-04-01T12:35:43.125Z,3648.00
2023-04-01T12:36:43.115Z,3328.00
2023-04-01T12:37:43.077Z,3072.00
2023-04-01T12:38:43.063Z,2988.00
2023-04-01T12:39:43.038Z,3084.00